Terminal Aerodrome Forecast
Issued by NWS Tallahassee, FL

Home | Current Version | Previous Version | Text Only | Print | Product List | Glossary On
Versions: 1 2 3 4 5 6 7 8 9 10 11 12 13 14 15 16 17 18 19
196
FTUS42 KTAE 240520
TAFTLH
TAF
KTLH 240520Z 2406/2506 05006KT P6SM BKN015
     FM240900 03004KT P6SM BKN035
     FM241300 02004KT P6SM SKC=

USA.gov is the U.S. government's official web portal to all federal, state and local government web resources and services.